createdAt,value
2018-05-03T00:00:24.313Z,99.90
2018-05-03T00:02:51.823Z,99.90
2018-05-03T00:05:19.350Z,99.90
2018-05-03T00:07:46.927Z,99.90
2018-05-03T00:10:14.462Z,99.90
2018-05-03T00:12:41.975Z,99.90
2018-05-03T00:15:09.543Z,99.90
2018-05-03T00:17:37.900Z,99.90
2018-05-03T00:20:05.418Z,99.90
2018-05-03T00:22:33.014Z,99.90
2018-05-03T00:25:00.510Z,99.90
2018-05-03T00:27:28.033Z,99.90
2018-05-03T00:29:55.554Z,99.90
2018-05-03T00:32:23.080Z,99.90
2018-05-03T00:34:50.585Z,99.90
2018-05-03T00:37:21.412Z,99.90
2018-05-03T00:39:48.972Z,99.90
2018-05-03T00:42:16.481Z,99.90
2018-05-03T00:44:44.106Z,99.90
2018-05-03T00:47:11.639Z,99.90
2018-05-03T00:49:39.157Z,99.90
2018-05-03T00:52:07.433Z,99.90
2018-05-03T00:54:47.578Z,99.90
2018-05-03T00:57:15.134Z,99.90
2018-05-03T00:59:42.682Z,99.90
2018-05-03T01:02:10.189Z,99.90
2018-05-03T01:04:37.697Z,99.90
2018-05-03T01:07:05.210Z,99.90
2018-05-03T01:09:32.712Z,99.90
2018-05-03T01:12:00.204Z,99.90
2018-05-03T01:14:27.744Z,99.90
2018-05-03T01:16:55.222Z,99.90
2018-05-03T01:19:22.723Z,99.90
2018-05-03T01:21:50.252Z,99.90
2018-05-03T01:24:17.728Z,99.90
2018-05-03T01:26:45.215Z,99.90
2018-05-03T01:29:12.710Z,99.90
2018-05-03T01:31:40.234Z,99.90
2018-05-03T01:34:08.036Z,99.90
2018-05-03T01:36:35.561Z,99.90
2018-05-03T01:39:03.080Z,99.90
2018-05-03T01:41:30.596Z,99.90
2018-05-03T01:43:58.865Z,99.90
2018-05-03T01:46:27.191Z,99.90
2018-05-03T01:48:54.767Z,99.90
2018-05-03T01:51:22.286Z,99.90
2018-05-03T01:53:49.826Z,99.90
2018-05-03T01:56:18.109Z,99.90
2018-05-03T01:58:45.625Z,99.90
2018-05-03T02:01:13.138Z,99.90
2018-05-03T02:03:41.049Z,99.90
2018-05-03T02:06:08.538Z,99.90
2018-05-03T02:08:36.870Z,99.90
2018-05-03T02:11:04.367Z,99.90
2018-05-03T02:13:31.874Z,99.90
2018-05-03T02:15:59.453Z,99.90
2018-05-03T02:18:26.981Z,99.90
2018-05-03T02:20:54.471Z,99.90
2018-05-03T02:23:21.985Z,99.90
2018-05-03T02:25:49.519Z,99.90
2018-05-03T02:28:17.789Z,99.90
2018-05-03T02:30:46.044Z,99.90
2018-05-03T02:33:13.556Z,99.90
2018-05-03T02:35:41.049Z,99.90
2018-05-03T02:38:08.556Z,99.90
2018-05-03T02:40:36.079Z,99.90
2018-05-03T02:43:03.588Z,99.90
2018-05-03T02:45:31.089Z,99.90
2018-05-03T02:47:58.585Z,99.90
2018-05-03T02:50:26.089Z,99.90
2018-05-03T02:52:53.625Z,99.90
2018-05-03T02:55:21.162Z,99.90
2018-05-03T02:58:06.326Z,99.90
2018-05-03T03:00:52.169Z,99.90
2018-05-03T03:03:37.426Z,99.90
2018-05-03T03:06:16.851Z,99.90
2018-05-03T03:12:25.217Z,99.90
2018-05-03T03:15:10.400Z,99.90
2018-05-03T03:17:55.539Z,99.90
2018-05-03T03:20:54.377Z,99.90
2018-05-03T03:23:39.458Z,99.90
2018-05-03T03:29:35.370Z,99.90
2018-05-03T03:32:24.483Z,99.90
2018-05-03T03:35:03.730Z,99.90
2018-05-03T03:37:43.891Z,99.90
2018-05-03T03:40:25.231Z,99.90
2018-05-03T03:45:55.249Z,99.90
2018-05-03T03:48:22.762Z,99.90
2018-05-03T03:50:50.264Z,99.90
2018-05-03T03:53:17.838Z,99.90
2018-05-03T03:55:46.809Z,99.90
2018-05-03T03:58:14.321Z,99.90
2018-05-03T04:00:41.839Z,99.90
2018-05-03T04:03:09.344Z,99.90
2018-05-03T04:05:36.910Z,99.90
2018-05-03T04:08:04.401Z,99.90
2018-05-03T04:10:31.899Z,99.90
2018-05-03T04:12:59.405Z,99.90
2018-05-03T04:15:26.920Z,99.90
2018-05-03T04:18:11.980Z,99.90
2018-05-03T04:20:51.322Z,99.90
2018-05-03T04:23:31.008Z,99.90
2018-05-03T04:26:02.051Z,99.90
2018-05-03T04:28:29.529Z,99.90
2018-05-03T04:30:57.850Z,99.90
2018-05-03T04:33:25.369Z,99.90
2018-05-03T04:35:53.625Z,99.90
2018-05-03T04:38:21.146Z,99.90
2018-05-03T04:40:48.698Z,99.90
2018-05-03T04:43:16.354Z,99.90
2018-05-03T04:45:43.852Z,99.90
2018-05-03T04:48:11.365Z,99.90
2018-05-03T04:50:38.894Z,99.90
2018-05-03T04:53:08.021Z,99.90
2018-05-03T04:55:35.615Z,99.90
2018-05-03T04:58:03.166Z,99.90
2018-05-03T05:00:30.670Z,99.90
2018-05-03T05:02:59.460Z,99.90
2018-05-03T05:05:27.774Z,99.90
2018-05-03T05:07:55.289Z,99.90
2018-05-03T05:10:23.630Z,99.90
2018-05-03T05:12:51.106Z,99.90
2018-05-03T05:15:18.646Z,99.90
2018-05-03T05:17:46.140Z,99.90
2018-05-03T05:20:14.540Z,99.90
2018-05-03T05:22:42.073Z,99.90
2018-05-03T05:25:10.336Z,99.90
2018-05-03T05:27:37.846Z,99.90
2018-05-03T05:30:05.454Z,99.90
2018-05-03T05:32:33.843Z,99.90
2018-05-03T05:35:01.368Z,99.90
2018-05-03T05:37:28.863Z,99.90
2018-05-03T05:39:57.141Z,99.90
2018-05-03T05:42:25.449Z,99.90
2018-05-03T05:44:52.947Z,99.90
2018-05-03T05:47:20.454Z,99.90
2018-05-03T05:49:47.965Z,99.90
2018-05-03T05:52:15.448Z,99.90
2018-05-03T05:54:42.949Z,99.90
2018-05-03T05:57:10.465Z,99.90
2018-05-03T05:59:38.728Z,99.90
2018-05-03T06:02:06.261Z,99.90
2018-05-03T06:04:33.776Z,99.90
2018-05-03T06:07:01.273Z,99.90
2018-05-03T06:09:28.768Z,99.90
2018-05-03T06:11:57.014Z,99.90
2018-05-03T06:14:25.281Z,99.90
2018-05-03T06:16:52.862Z,99.90
2018-05-03T06:19:20.385Z,99.90
2018-05-03T06:21:47.883Z,99.90
2018-05-03T06:24:15.403Z,99.90
2018-05-03T06:26:42.931Z,99.90
2018-05-03T06:29:10.417Z,99.90
2018-05-03T06:31:38.635Z,99.90
2018-05-03T06:34:06.893Z,99.90
2018-05-03T06:36:34.386Z,99.90
2018-05-03T06:39:02.757Z,99.90
2018-05-03T06:41:31.030Z,99.90
2018-05-03T06:43:59.312Z,99.90
2018-05-03T06:46:27.573Z,99.90
2018-05-03T06:48:55.861Z,99.90
2018-05-03T06:51:24.148Z,99.90
2018-05-03T06:53:51.659Z,99.90
2018-05-03T06:56:19.946Z,99.90
2018-05-03T06:58:47.479Z,99.90
2018-05-03T07:01:15.006Z,99.90
2018-05-03T07:03:43.034Z,99.90
2018-05-03T07:06:10.547Z,99.90
2018-05-03T07:08:38.055Z,99.90
2018-05-03T07:11:06.334Z,99.90
2018-05-03T07:13:34.591Z,99.90
2018-05-03T07:16:02.886Z,99.90
2018-05-03T07:18:31.185Z,99.90
2018-05-03T07:20:58.719Z,99.90
2018-05-03T07:23:27.016Z,99.90
2018-05-03T07:25:54.562Z,99.90
2018-05-03T07:28:22.839Z,99.90
2018-05-03T07:30:50.343Z,99.90
2018-05-03T07:33:17.845Z,99.90
2018-05-03T07:35:46.115Z,99.90
2018-05-03T07:38:14.443Z,99.90
2018-05-03T07:40:41.996Z,99.90
2018-05-03T07:43:09.481Z,99.90
2018-05-03T07:45:37.274Z,99.90
2018-05-03T07:48:05.552Z,99.90
2018-05-03T07:50:33.067Z,99.90
2018-05-03T07:53:00.637Z,99.90
2018-05-03T07:55:28.144Z,99.90
2018-05-03T07:57:56.417Z,99.90
2018-05-03T08:00:24.706Z,99.90
2018-05-03T08:02:52.219Z,99.90
2018-05-03T08:05:19.732Z,99.90
2018-05-03T08:07:47.268Z,99.90
2018-05-03T08:10:14.816Z,99.90
2018-05-03T08:12:43.142Z,99.90
2018-05-03T08:15:10.634Z,99.90
2018-05-03T08:17:38.169Z,99.90
2018-05-03T08:20:05.739Z,99.90
2018-05-03T08:22:34.034Z,99.90
2018-05-03T08:25:01.524Z,99.90
2018-05-03T08:27:29.058Z,99.90
2018-05-03T08:29:56.591Z,99.90
2018-05-03T08:32:24.099Z,99.90
2018-05-03T08:34:51.612Z,99.90
2018-05-03T08:37:19.152Z,99.90
2018-05-03T08:39:47.412Z,99.90
2018-05-03T08:42:14.917Z,99.90
2018-05-03T08:44:42.416Z,99.90
2018-05-03T08:47:09.930Z,99.90
2018-05-03T08:49:37.463Z,99.90
2018-05-03T08:52:04.959Z,99.90
2018-05-03T08:54:33.225Z,99.90
2018-05-03T08:57:01.524Z,99.90
2018-05-03T08:59:29.049Z,99.90
2018-05-03T09:01:56.596Z,99.90
2018-05-03T09:04:24.069Z,99.90
2018-05-03T09:06:51.670Z,99.90
2018-05-03T09:09:19.154Z,99.90
2018-05-03T09:11:46.692Z,99.90
2018-05-03T09:14:14.187Z,99.90
2018-05-03T09:16:41.736Z,99.90
2018-05-03T09:19:09.261Z,99.90
2018-05-03T09:21:36.760Z,99.90
2018-05-03T09:24:04.265Z,99.90
2018-05-03T09:26:31.779Z,99.90
2018-05-03T09:29:00.091Z,99.90
2018-05-03T09:31:28.366Z,99.90
2018-05-03T09:33:56.655Z,99.90
2018-05-03T09:36:25.032Z,99.90
2018-05-03T09:38:52.554Z,99.90
2018-05-03T09:41:20.079Z,99.90
2018-05-03T09:43:47.573Z,99.90
2018-05-03T09:46:15.092Z,99.90
2018-05-03T09:48:42.620Z,99.90
2018-05-03T09:51:10.138Z,99.90
2018-05-03T09:53:37.682Z,99.90
2018-05-03T09:56:05.185Z,99.90
2018-05-03T09:58:32.836Z,99.90
2018-05-03T10:01:01.096Z,99.90
2018-05-03T10:03:28.608Z,99.90
2018-05-03T10:05:56.582Z,99.90
2018-05-03T10:08:24.130Z,99.90
2018-05-03T10:10:51.621Z,99.90
2018-05-03T10:13:19.180Z,99.90
2018-05-03T10:15:46.661Z,99.90
2018-05-03T10:18:14.971Z,99.90
2018-05-03T10:20:43.280Z,99.90
2018-05-03T10:23:10.824Z,99.40
2018-05-03T10:25:38.351Z,97.20
2018-05-03T10:28:05.849Z,98.00
2018-05-03T10:30:33.379Z,98.20
2018-05-03T10:33:00.986Z,97.70
2018-05-03T10:35:28.481Z,98.10
2018-05-03T10:37:56.756Z,98.00
2018-05-03T10:40:25.021Z,98.70
2018-05-03T10:42:53.275Z,97.70
2018-05-03T10:45:20.777Z,97.70
2018-05-03T10:47:48.301Z,97.20
2018-05-03T10:50:15.919Z,96.90
2018-05-03T10:52:43.513Z,97.20
2018-05-03T10:55:11.044Z,96.80
2018-05-03T10:57:38.543Z,96.70
2018-05-03T11:00:06.828Z,95.10
2018-05-03T11:02:34.362Z,95.10
2018-05-03T11:05:01.883Z,96.60
2018-05-03T11:07:29.423Z,94.70
2018-05-03T11:09:56.921Z,95.20
2018-05-03T11:12:24.429Z,96.60
2018-05-03T11:14:52.072Z,94.40
2018-05-03T11:17:20.350Z,93.30
2018-05-03T11:19:48.619Z,93.60
2018-05-03T11:22:16.136Z,93.60
2018-05-03T11:24:43.630Z,94.20
2018-05-03T11:27:11.195Z,94.70
2018-05-03T11:29:39.456Z,92.90
2018-05-03T11:32:06.950Z,92.80
2018-05-03T11:34:34.505Z,91.50
2018-05-03T11:37:02.065Z,90.20
2018-05-03T11:39:29.577Z,90.80
2018-05-03T11:41:57.165Z,89.00
2018-05-03T11:44:25.429Z,86.90
2018-05-03T11:46:52.936Z,86.80
2018-05-03T11:49:20.445Z,87.70
2018-05-03T11:51:47.949Z,84.10
2018-05-03T11:54:15.462Z,84.80
2018-05-03T11:56:43.819Z,85.10
2018-05-03T11:59:11.435Z,85.00
2018-05-03T12:01:38.881Z,85.90
2018-05-03T12:04:06.376Z,87.10
2018-05-03T12:06:33.880Z,87.50
2018-05-03T12:09:02.223Z,86.40
2018-05-03T12:11:30.539Z,85.20
2018-05-03T12:13:58.141Z,85.10
2018-05-03T12:16:25.656Z,83.90
2018-05-03T12:18:53.923Z,83.50
2018-05-03T12:21:22.176Z,84.40
2018-05-03T12:23:49.757Z,84.40
2018-05-03T12:26:17.264Z,83.70
2018-05-03T12:28:44.793Z,83.80
2018-05-03T12:31:12.297Z,83.70
2018-05-03T12:33:39.799Z,84.80
2018-05-03T12:36:07.295Z,83.20
2018-05-03T12:38:34.850Z,83.20
2018-05-03T12:41:02.347Z,81.80
2018-05-03T12:43:29.835Z,85.20
2018-05-03T12:45:58.105Z,82.90
2018-05-03T12:48:25.745Z,82.90
2018-05-03T12:50:53.226Z,80.30
2018-05-03T12:53:20.721Z,82.00
2018-05-03T12:55:48.304Z,77.30
2018-05-03T12:58:15.796Z,77.60
2018-05-03T13:00:44.133Z,76.20
2018-05-03T13:03:11.588Z,76.20
2018-05-03T13:05:39.107Z,76.20
2018-05-03T13:08:06.605Z,76.40
2018-05-03T13:10:34.171Z,76.50
2018-05-03T13:13:01.671Z,75.70
2018-05-03T13:15:29.187Z,77.40
2018-05-03T13:17:56.733Z,78.00
2018-05-03T13:20:24.221Z,76.30
2018-05-03T13:22:52.510Z,71.70
2018-05-03T13:25:20.778Z,74.50
2018-05-03T13:27:48.363Z,74.60
2018-05-03T13:30:15.857Z,76.30
2018-05-03T13:32:43.379Z,72.20
2018-05-03T13:35:10.893Z,71.00
2018-05-03T13:37:38.407Z,71.60
2018-05-03T13:40:05.886Z,71.60
2018-05-03T13:42:33.452Z,72.40
2018-05-03T13:45:00.979Z,70.10
2018-05-03T13:47:28.548Z,68.60
2018-05-03T13:49:56.048Z,70.50
2018-05-03T13:52:23.543Z,68.90
2018-05-03T13:54:51.056Z,71.80
2018-05-03T13:57:18.548Z,69.60
2018-05-03T13:59:46.062Z,67.70
2018-05-03T14:02:13.570Z,69.90
2018-05-03T14:04:41.052Z,67.00
2018-05-03T14:07:27.896Z,69.00
2018-05-03T14:09:55.395Z,68.10
2018-05-03T14:12:22.921Z,66.30
2018-05-03T14:14:50.428Z,66.70
2018-05-03T14:17:18.604Z,65.20
2018-05-03T14:19:46.155Z,67.00
2018-05-03T14:22:13.646Z,66.60
2018-05-03T14:24:42.183Z,67.00
2018-05-03T14:27:09.781Z,67.00
2018-05-03T14:29:37.292Z,67.90
2018-05-03T14:32:04.851Z,68.40
2018-05-03T14:34:32.349Z,69.30
2018-05-03T14:36:59.980Z,69.00
2018-05-03T14:39:27.568Z,69.60
2018-05-03T14:41:55.079Z,70.70
2018-05-03T14:44:23.360Z,69.50
2018-05-03T14:46:51.648Z,69.90
2018-05-03T14:49:19.138Z,69.90
2018-05-03T14:51:46.637Z,69.10
2018-05-03T14:54:14.891Z,67.80
2018-05-03T14:56:42.402Z,67.70
2018-05-03T14:59:10.005Z,67.70
2018-05-03T15:01:37.590Z,69.00
2018-05-03T15:04:05.990Z,68.50
2018-05-03T15:06:33.738Z,68.40
2018-05-03T15:09:03.562Z,67.70
2018-05-03T15:11:31.167Z,67.80
2018-05-03T15:13:58.986Z,66.90
2018-05-03T15:16:26.705Z,66.40
2018-05-03T15:18:54.529Z,67.40
2018-05-03T15:21:22.240Z,67.80
2018-05-03T15:23:49.925Z,69.70
2018-05-03T15:26:17.863Z,71.00
2018-05-03T15:28:45.531Z,69.70
2018-05-03T15:31:13.071Z,69.20
2018-05-03T15:33:40.703Z,68.40
2018-05-03T15:36:08.592Z,69.60
2018-05-03T15:38:36.354Z,69.00
2018-05-03T15:41:04.195Z,70.30
2018-05-03T15:43:32.089Z,68.70
2018-05-03T15:45:59.665Z,68.40
2018-05-03T15:48:27.226Z,68.60
2018-05-03T15:50:56.661Z,68.80
2018-05-03T15:53:24.171Z,68.70
2018-05-03T15:55:51.945Z,69.10
2018-05-03T15:58:19.625Z,70.10
2018-05-03T16:03:49.793Z,68.30
2018-05-03T16:06:17.597Z,68.30
2018-05-03T16:08:45.163Z,69.70
2018-05-03T16:11:12.683Z,71.60
2018-05-03T16:13:40.188Z,70.20
2018-05-03T16:16:07.737Z,70.20
2018-05-03T16:18:37.048Z,71.40
2018-05-03T16:21:05.108Z,70.80
2018-05-03T16:23:32.601Z,70.10
2018-05-03T16:26:00.905Z,71.10
2018-05-03T16:28:28.441Z,71.10
2018-05-03T16:30:55.956Z,75.50
2018-05-03T16:33:23.492Z,72.90
2018-05-03T16:35:51.187Z,70.70
2018-05-03T16:38:18.776Z,70.80
2018-05-03T16:40:46.651Z,70.60
2018-05-03T16:43:14.567Z,70.70
2018-05-03T16:45:42.204Z,70.00
2018-05-03T16:48:10.642Z,70.70
2018-05-03T16:50:38.909Z,77.80
2018-05-03T16:53:06.686Z,77.80
2018-05-03T16:55:35.151Z,79.80
2018-05-03T16:58:03.457Z,79.10
2018-05-03T17:00:31.029Z,79.10
2018-05-03T17:02:58.608Z,76.60
2018-05-03T17:05:26.125Z,75.00
2018-05-03T17:07:54.374Z,80.60
2018-05-03T17:10:21.902Z,80.60
2018-05-03T17:12:49.422Z,71.40
2018-05-03T17:15:16.959Z,79.40
2018-05-03T17:17:45.225Z,80.30
2018-05-03T17:20:12.752Z,80.20
2018-05-03T17:22:40.250Z,80.10
2018-05-03T17:25:08.551Z,79.50
2018-05-03T17:27:36.042Z,79.50
2018-05-03T17:30:03.523Z,77.70
2018-05-03T17:32:31.046Z,79.90
2018-05-03T17:34:58.559Z,79.00
2018-05-03T17:37:26.830Z,82.90
2018-05-03T17:39:55.086Z,85.40
2018-05-03T17:42:22.638Z,84.30
2018-05-03T17:44:50.150Z,84.10
2018-05-03T17:47:17.659Z,82.50
2018-05-03T17:49:45.197Z,81.80
2018-05-03T17:52:12.788Z,84.00
2018-05-03T17:54:40.303Z,85.10
2018-05-03T17:57:07.794Z,84.20
2018-05-03T17:59:35.299Z,86.10
2018-05-03T18:02:02.814Z,83.70
2018-05-03T18:04:30.442Z,81.40
2018-05-03T18:06:58.789Z,84.20
2018-05-03T18:09:26.309Z,84.20
2018-05-03T18:11:53.805Z,86.00
2018-05-03T18:14:21.357Z,85.60
2018-05-03T18:16:48.876Z,87.10
2018-05-03T18:19:16.380Z,89.60
2018-05-03T18:21:43.960Z,88.10
2018-05-03T18:24:11.473Z,89.70
2018-05-03T18:26:38.998Z,90.50
2018-05-03T18:29:06.565Z,91.40
2018-05-03T18:31:34.170Z,91.70
2018-05-03T18:34:01.712Z,91.20
2018-05-03T18:36:29.983Z,91.80
2018-05-03T18:38:57.489Z,91.80
2018-05-03T18:41:25.013Z,92.00
2018-05-03T18:43:53.299Z,92.70
2018-05-03T18:46:20.831Z,92.70
2018-05-03T18:48:49.114Z,92.90
2018-05-03T18:51:17.726Z,92.90
2018-05-03T18:53:48.165Z,93.00
2018-05-03T18:56:16.369Z,93.90
2018-05-03T18:58:43.861Z,93.80
2018-05-03T19:01:13.300Z,93.70
2018-05-03T19:03:41.615Z,94.50
2018-05-03T19:06:09.121Z,94.80
2018-05-03T19:08:36.675Z,95.20
2018-05-03T19:11:04.228Z,94.70
2018-05-03T19:13:31.772Z,95.10
2018-05-03T19:15:59.382Z,95.10
2018-05-03T19:18:27.125Z,95.10
2018-05-03T19:20:54.680Z,95.70
2018-05-03T19:23:22.396Z,96.10
2018-05-03T19:25:50.000Z,96.10
2018-05-03T19:28:17.531Z,96.30
2018-05-03T19:30:45.176Z,96.20
2018-05-03T19:33:12.704Z,96.80
2018-05-03T19:35:40.308Z,97.00
2018-05-03T19:38:08.188Z,97.20
2018-05-03T19:40:35.885Z,97.40
2018-05-03T19:43:03.508Z,96.90
2018-05-03T19:45:31.998Z,97.60
2018-05-03T19:47:59.508Z,97.50
2018-05-03T19:50:27.127Z,98.30
2018-05-03T19:52:55.016Z,98.30
2018-05-03T19:55:22.916Z,98.50
2018-05-03T19:57:51.299Z,98.90
2018-05-03T20:00:19.603Z,98.90
2018-05-03T20:02:47.419Z,98.80
2018-05-03T20:05:14.952Z,98.90
2018-05-03T20:07:42.548Z,99.50
2018-05-03T20:10:10.085Z,99.90
2018-05-03T20:12:37.573Z,99.90
2018-05-03T20:15:05.167Z,99.90
2018-05-03T20:17:32.847Z,99.90
2018-05-03T20:20:01.118Z,99.90
2018-05-03T20:22:28.741Z,99.90
2018-05-03T20:24:56.320Z,99.90
2018-05-03T20:27:23.850Z,99.90
2018-05-03T20:29:52.121Z,99.90
2018-05-03T20:32:20.396Z,99.90
2018-05-03T20:34:48.698Z,99.90
2018-05-03T20:37:16.298Z,99.90
2018-05-03T20:39:43.884Z,99.90
2018-05-03T20:42:11.395Z,99.90
2018-05-03T20:44:38.928Z,99.90
2018-05-03T20:47:06.442Z,99.90
2018-05-03T20:49:33.966Z,99.90
2018-05-03T20:52:01.511Z,99.90
2018-05-03T20:54:29.008Z,99.90
2018-05-03T20:56:56.570Z,99.90
2018-05-03T20:59:24.431Z,99.90
2018-05-03T21:01:52.061Z,99.90
2018-05-03T21:04:19.640Z,99.90
2018-05-03T21:06:47.253Z,99.90
2018-05-03T21:09:16.704Z,99.90
2018-05-03T21:11:44.245Z,99.90
2018-05-03T21:14:11.805Z,99.90
2018-05-03T21:16:39.331Z,99.90
2018-05-03T21:19:06.899Z,99.90
2018-05-03T21:21:34.693Z,99.90
2018-05-03T21:24:02.198Z,99.90
2018-05-03T21:26:29.696Z,99.90
2018-05-03T21:28:57.249Z,99.90
2018-05-03T21:31:24.804Z,99.90
2018-05-03T21:33:52.356Z,99.90
2018-05-03T21:36:19.918Z,99.90
2018-05-03T21:38:47.441Z,99.90
2018-05-03T21:41:14.933Z,99.90
2018-05-03T21:43:42.582Z,99.90
2018-05-03T21:46:10.122Z,99.90
2018-05-03T21:48:37.735Z,99.90
2018-05-03T21:51:05.238Z,99.90
2018-05-03T21:53:33.563Z,99.90
2018-05-03T21:56:01.049Z,99.90
2018-05-03T21:58:28.795Z,99.90
2018-05-03T22:00:56.294Z,99.90
2018-05-03T22:03:23.805Z,99.90
2018-05-03T22:05:51.321Z,99.90
2018-05-03T22:08:18.950Z,99.90
2018-05-03T22:10:47.263Z,99.90
2018-05-03T22:13:14.794Z,99.90
2018-05-03T22:15:42.286Z,99.90
2018-05-03T22:18:09.869Z,99.90
2018-05-03T22:20:37.456Z,99.90
2018-05-03T22:23:04.953Z,99.90
2018-05-03T22:25:33.218Z,99.90
2018-05-03T22:28:01.662Z,99.90
2018-05-03T22:30:29.276Z,99.90
2018-05-03T22:32:56.816Z,99.90
2018-05-03T22:35:25.090Z,99.90
2018-05-03T22:37:53.353Z,99.90
2018-05-03T22:40:20.914Z,99.90
2018-05-03T22:42:48.446Z,99.90
2018-05-03T22:45:15.954Z,99.90
2018-05-03T22:47:44.254Z,99.90
2018-05-03T22:50:11.741Z,99.90
2018-05-03T22:52:39.261Z,99.90
2018-05-03T22:55:06.804Z,99.90
2018-05-03T22:57:34.319Z,99.90
2018-05-03T23:00:01.826Z,99.90
2018-05-03T23:02:29.370Z,99.90
2018-05-03T23:04:57.623Z,99.90
2018-05-03T23:07:25.179Z,99.90
2018-05-03T23:09:52.717Z,99.90
2018-05-03T23:12:20.239Z,99.90
2018-05-03T23:14:47.723Z,99.90
2018-05-03T23:17:15.321Z,99.90
2018-05-03T23:19:42.812Z,99.90
2018-05-03T23:22:10.334Z,99.90
2018-05-03T23:24:37.845Z,99.90
2018-05-03T23:27:05.359Z,99.90
2018-05-03T23:29:33.014Z,99.90
2018-05-03T23:32:00.523Z,99.90
2018-05-03T23:34:28.033Z,99.90
2018-05-03T23:36:56.312Z,99.90
2018-05-03T23:39:24.591Z,99.90
2018-05-03T23:41:52.834Z,99.90
2018-05-03T23:44:20.339Z,99.90
2018-05-03T23:46:47.830Z,99.90
2018-05-03T23:49:15.354Z,99.90
2018-05-03T23:51:42.858Z,99.90
2018-05-03T23:54:10.481Z,99.90
2018-05-03T23:56:38.137Z,99.90
2018-05-03T23:59:06.419Z,99.90
